sensor_id;sensor_type;location;lat;lon;timestamp;pressure;altitude;pressure_sealevel;temperature;humidity
58092;BME280;43896;48.178;11.578;2022-10-31T00:01:13;96297.38;;;12.73;76.17
58092;BME280;43896;48.178;11.578;2022-10-31T00:03:38;96265.69;;;12.57;76.40
58092;BME280;43896;48.178;11.578;2022-10-31T00:06:04;96287.47;;;12.75;76.26
58092;BME280;43896;48.178;11.578;2022-10-31T00:08:29;96305.00;;;12.85;76.48
58092;BME280;43896;48.178;11.578;2022-10-31T00:10:54;96345.66;;;13.00;76.84
58092;BME280;43896;48.178;11.578;2022-10-31T00:13:20;96336.06;;;12.99;76.66
58092;BME280;43896;48.178;11.578;2022-10-31T00:15:45;96294.72;;;12.65;76.32
58092;BME280;43896;48.178;11.578;2022-10-31T00:18:11;96300.03;;;12.82;76.76
58092;BME280;43896;48.178;11.578;2022-10-31T00:20:37;96285.19;;;12.72;77.03
58092;BME280;43896;48.178;11.578;2022-10-31T00:23:03;96339.56;;;13.00;76.84
58092;BME280;43896;48.178;11.578;2022-10-31T00:25:33;96280.84;;;12.55;76.75
58092;BME280;43896;48.178;11.578;2022-10-31T00:27:59;96339.19;;;12.94;76.75
58092;BME280;43896;48.178;11.578;2022-10-31T00:30:24;96309.13;;;12.79;77.11
58092;BME280;43896;48.178;11.578;2022-10-31T00:32:49;96286.50;;;12.76;77.07
58092;BME280;43896;48.178;11.578;2022-10-31T00:35:15;96337.06;;;13.06;76.47
58092;BME280;43896;48.178;11.578;2022-10-31T00:37:40;96231.00;;;12.44;76.25
58092;BME280;43896;48.178;11.578;2022-10-31T00:40:06;96311.59;;;12.89;76.53
58092;BME280;43896;48.178;11.578;2022-10-31T00:42:31;96317.56;;;12.99;76.17
58092;BME280;43896;48.178;11.578;2022-10-31T00:44:57;96259.59;;;12.65;76.19
58092;BME280;43896;48.178;11.578;2022-10-31T00:47:22;96259.09;;;12.61;75.74
58092;BME280;43896;48.178;11.578;2022-10-31T00:49:47;96263.53;;;12.61;75.50
58092;BME280;43896;48.178;11.578;2022-10-31T00:52:13;96283.69;;;12.70;75.53
58092;BME280;43896;48.178;11.578;2022-10-31T00:54:38;96334.41;;;13.06;75.65
58092;BME280;43896;48.178;11.578;2022-10-31T00:57:03;96313.28;;;12.90;75.50
58092;BME280;43896;48.178;11.578;2022-10-31T00:59:29;96285.19;;;12.72;75.93
58092;BME280;43896;48.178;11.578;2022-10-31T01:01:54;96280.34;;;12.60;75.68
58092;BME280;43896;48.178;11.578;2022-10-31T01:04:19;96280.84;;;12.63;75.45
58092;BME280;43896;48.178;11.578;2022-10-31T01:06:45;96251.44;;;12.42;75.80
58092;BME280;43896;48.178;11.578;2022-10-31T01:09:10;96259.19;;;12.51;75.83
58092;BME280;43896;48.178;11.578;2022-10-31T01:11:35;96286.81;;;12.65;75.94
58092;BME280;43896;48.178;11.578;2022-10-31T01:14:01;96287.13;;;12.62;75.86
58092;BME280;43896;48.178;11.578;2022-10-31T01:16:27;96283.66;;;12.62;75.87
58092;BME280;43896;48.178;11.578;2022-10-31T01:18:54;96269.44;;;12.54;75.70
58092;BME280;43896;48.178;11.578;2022-10-31T01:21:22;96291.25;;;12.65;76.14
58092;BME280;43896;48.178;11.578;2022-10-31T01:23:48;96335.56;;;12.95;76.04
58092;BME280;43896;48.178;11.578;2022-10-31T01:26:16;96240.34;;;12.30;75.92
58092;BME280;43896;48.178;11.578;2022-10-31T01:28:48;96283.78;;;12.52;76.06
58092;BME280;43896;48.178;11.578;2022-10-31T01:31:15;96350.19;;;12.82;75.77
58092;BME280;43896;48.178;11.578;2022-10-31T01:33:40;96289.22;;;12.50;75.61
58092;BME280;43896;48.178;11.578;2022-10-31T01:38:38;96307.94;;;12.65;75.92
58092;BME280;43896;48.178;11.578;2022-10-31T01:41:04;96303.16;;;12.69;75.78
58092;BME280;43896;48.178;11.578;2022-10-31T01:43:44;96336.72;;;12.93;75.86
58092;BME280;43896;48.178;11.578;2022-10-31T01:46:10;96293.22;;;12.63;75.54
58092;BME280;43896;48.178;11.578;2022-10-31T01:48:36;96277.63;;;12.35;76.09
58092;BME280;43896;48.178;11.578;2022-10-31T01:51:02;96251.22;;;12.27;75.67
58092;BME280;43896;48.178;11.578;2022-10-31T01:53:30;96274.31;;;12.33;76.13
58092;BME280;43896;48.178;11.578;2022-10-31T01:55:56;96316.47;;;12.59;75.84
58092;BME280;43896;48.178;11.578;2022-10-31T01:58:28;96339.28;;;12.76;76.13
58092;BME280;43896;48.178;11.578;2022-10-31T02:00:59;96277.16;;;12.48;75.81
58092;BME280;43896;48.178;11.578;2022-10-31T02:03:26;96345.53;;;12.75;76.11
58092;BME280;43896;48.178;11.578;2022-10-31T02:05:54;96322.44;;;12.69;76.16
58092;BME280;43896;48.178;11.578;2022-10-31T02:08:27;96288.69;;;12.38;76.30
58092;BME280;43896;48.178;11.578;2022-10-31T02:10:53;96254.66;;;12.19;76.57
58092;BME280;43896;48.178;11.578;2022-10-31T02:13:20;96234.78;;;12.07;76.37
58092;BME280;43896;48.178;11.578;2022-10-31T02:15:49;96286.69;;;12.41;76.73
58092;BME280;43896;48.178;11.578;2022-10-31T02:18:17;96238.94;;;12.09;76.40
58092;BME280;43896;48.178;11.578;2022-10-31T02:21:07;96329.03;;;12.65;76.87
58092;BME280;43896;48.178;11.578;2022-10-31T02:23:51;96333.78;;;12.62;76.98
58092;BME280;43896;48.178;11.578;2022-10-31T02:26:31;96317.09;;;12.53;77.08
58092;BME280;43896;48.178;11.578;2022-10-31T02:34:52;96280.41;;;12.33;75.93
58092;BME280;43896;48.178;11.578;2022-10-31T02:37:42;96336.16;;;12.73;75.96
58092;BME280;43896;48.178;11.578;2022-10-31T02:41:10;96318.59;;;12.55;76.28
58092;BME280;43896;48.178;11.578;2022-10-31T02:46:19;96335.13;;;12.66;76.33
58092;BME280;43896;48.178;11.578;2022-10-31T02:48:48;96332.97;;;12.61;76.43
58092;BME280;43896;48.178;11.578;2022-10-31T02:51:17;96269.13;;;12.15;76.68
58092;BME280;43896;48.178;11.578;2022-10-31T02:53:42;96290.31;;;12.31;76.33
58092;BME280;43896;48.178;11.578;2022-10-31T02:56:14;96298.56;;;12.36;76.33
58092;BME280;43896;48.178;11.578;2022-10-31T02:58:53;96244.53;;;12.06;76.60
58092;BME280;43896;48.178;11.578;2022-10-31T03:04:02;96322.88;;;12.56;75.72
58092;BME280;43896;48.178;11.578;2022-10-31T03:09:26;96338.09;;;12.63;75.45
58092;BME280;43896;48.178;11.578;2022-10-31T03:14:26;96316.53;;;12.41;75.79
58092;BME280;43896;48.178;11.578;2022-10-31T03:16:55;96238.88;;;12.01;75.57
58092;BME280;43896;48.178;11.578;2022-10-31T03:19:27;96285.44;;;12.18;75.68
58092;BME280;43896;48.178;11.578;2022-10-31T03:22:16;96329.41;;;12.44;76.20
58092;BME280;43896;48.178;11.578;2022-10-31T03:24:43;96258.50;;;11.98;75.94
58092;BME280;43896;48.178;11.578;2022-10-31T03:27:12;96252.53;;;11.96;75.85
58092;BME280;43896;48.178;11.578;2022-10-31T03:29:38;96336.88;;;12.49;75.72
58092;BME280;43896;48.178;11.578;2022-10-31T03:32:13;96245.38;;;11.89;76.38
58092;BME280;43896;48.178;11.578;2022-10-31T03:34:41;96299.78;;;12.16;76.21
58092;BME280;43896;48.178;11.578;2022-10-31T03:37:11;96324.06;;;12.28;76.61
58092;BME280;43896;48.178;11.578;2022-10-31T03:39:41;96335.81;;;12.33;76.80
58092;BME280;43896;48.178;11.578;2022-10-31T03:42:11;96277.91;;;11.97;76.75
58092;BME280;43896;48.178;11.578;2022-10-31T03:44:42;96319.41;;;12.22;76.66
58092;BME280;43896;48.178;11.578;2022-10-31T03:47:08;96227.03;;;11.71;75.94
58092;BME280;43896;48.178;11.578;2022-10-31T03:49:34;96289.69;;;12.11;76.21
58092;BME280;43896;48.178;11.578;2022-10-31T03:52:15;96326.91;;;12.34;76.15
58092;BME280;43896;48.178;11.578;2022-10-31T03:54:45;96305.91;;;12.25;75.98
58092;BME280;43896;48.178;11.578;2022-10-31T03:57:32;96332.50;;;12.31;75.76
58092;BME280;43896;48.178;11.578;2022-10-31T04:00:08;96255.78;;;11.90;76.08
58092;BME280;43896;48.178;11.578;2022-10-31T04:02:38;96280.84;;;11.94;75.83
58092;BME280;43896;48.178;11.578;2022-10-31T04:05:04;96311.94;;;12.09;75.69
58092;BME280;43896;48.178;11.578;2022-10-31T04:07:36;96324.75;;;12.30;75.80
58092;BME280;43896;48.178;11.578;2022-10-31T04:10:05;96273.47;;;11.98;75.66
58092;BME280;43896;48.178;11.578;2022-10-31T04:12:33;96287.13;;;11.93;75.42
58092;BME280;43896;48.178;11.578;2022-10-31T04:15:01;96336.53;;;12.17;75.69
58092;BME280;43896;48.178;11.578;2022-10-31T04:17:30;96315.03;;;12.04;75.39
58092;BME280;43896;48.178;11.578;2022-10-31T04:19:59;96338.06;;;12.28;75.37
58092;BME280;43896;48.178;11.578;2022-10-31T04:22:25;96323.00;;;12.12;74.88
58092;BME280;43896;48.178;11.578;2022-10-31T04:24:50;96293.66;;;11.89;75.27
58092;BME280;43896;48.178;11.578;2022-10-31T04:27:16;96246.38;;;11.61;75.26
58092;BME280;43896;48.178;11.578;2022-10-31T04:29:41;96300.06;;;11.87;75.61
58092;BME280;43896;48.178;11.578;2022-10-31T04:32:06;96271.63;;;11.72;75.11
58092;BME280;43896;48.178;11.578;2022-10-31T04:34:32;96263.63;;;11.56;75.00
58092;BME280;43896;48.178;11.578;2022-10-31T04:36:57;96261.13;;;11.54;74.96
58092;BME280;43896;48.178;11.578;2022-10-31T04:39:22;96261.22;;;11.44;75.39
58092;BME280;43896;48.178;11.578;2022-10-31T04:41:48;96340.72;;;12.02;75.47
58092;BME280;43896;48.178;11.578;2022-10-31T04:44:13;96257.09;;;11.42;75.15
58092;BME280;43896;48.178;11.578;2022-10-31T04:46:38;96324.69;;;11.77;75.40
58092;BME280;43896;48.178;11.578;2022-10-31T04:49:04;96285.00;;;11.53;75.27
58092;BME280;43896;48.178;11.578;2022-10-31T04:51:30;96255.53;;;11.31;75.26
58092;BME280;43896;48.178;11.578;2022-10-31T04:53:55;96253.66;;;11.23;75.48
58092;BME280;43896;48.178;11.578;2022-10-31T04:56:21;96348.97;;;11.81;76.06
58092;BME280;43896;48.178;11.578;2022-10-31T04:58:46;96314.72;;;11.63;75.45
58092;BME280;43896;48.178;11.578;2022-10-31T05:01:12;96350.44;;;11.83;75.91
58092;BME280;43896;48.178;11.578;2022-10-31T05:03:46;96296.19;;;11.55;75.63
58092;BME280;43896;48.178;11.578;2022-10-31T05:06:12;96284.78;;;11.46;75.79
58092;BME280;43896;48.178;11.578;2022-10-31T05:08:37;96294.19;;;11.49;75.59
58092;BME280;43896;48.178;11.578;2022-10-31T05:11:03;96265.34;;;11.21;75.61
58092;BME280;43896;48.178;11.578;2022-10-31T05:13:29;96340.59;;;11.68;75.10
58092;BME280;43896;48.178;11.578;2022-10-31T05:15:55;96337.81;;;11.69;74.97
58092;BME280;43896;48.178;11.578;2022-10-31T05:18:20;96335.94;;;11.61;75.32
58092;BME280;43896;48.178;11.578;2022-10-31T05:20:46;96276.91;;;11.28;75.19
58092;BME280;43896;48.178;11.578;2022-10-31T05:23:11;96330.53;;;11.63;75.17
58092;BME280;43896;48.178;11.578;2022-10-31T05:25:37;96251.94;;;11.14;75.39
58092;BME280;43896;48.178;11.578;2022-10-31T05:28:02;96262.69;;;11.21;75.84
58092;BME280;43896;48.178;11.578;2022-10-31T05:30:30;96311.34;;;11.53;75.81
58092;BME280;43896;48.178;11.578;2022-10-31T05:32:56;96221.16;;;10.97;75.23
58092;BME280;43896;48.178;11.578;2022-10-31T05:35:24;96310.53;;;11.52;75.79
58092;BME280;43896;48.178;11.578;2022-10-31T05:37:50;96329.03;;;11.60;75.50
58092;BME280;43896;48.178;11.578;2022-10-31T05:40:17;96230.22;;;10.94;75.64
58092;BME280;43896;48.178;11.578;2022-10-31T05:42:43;96269.00;;;11.10;75.70
58092;BME280;43896;48.178;11.578;2022-10-31T05:45:11;96247.56;;;11.05;75.75
58092;BME280;43896;48.178;11.578;2022-10-31T05:47:36;96239.91;;;10.94;76.08
58092;BME280;43896;48.178;11.578;2022-10-31T05:50:02;96302.09;;;11.31;75.40
58092;BME280;43896;48.178;11.578;2022-10-31T05:52:28;96250.97;;;10.97;75.41
58092;BME280;43896;48.178;11.578;2022-10-31T05:54:53;96258.09;;;11.05;75.93
58092;BME280;43896;48.178;11.578;2022-10-31T05:57:19;96237.97;;;10.96;75.55
58092;BME280;43896;48.178;11.578;2022-10-31T05:59:44;96324.13;;;11.48;75.06
58092;BME280;43896;48.178;11.578;2022-10-31T06:02:09;96317.59;;;11.34;75.37
58092;BME280;43896;48.178;11.578;2022-10-31T06:04:35;96317.00;;;11.40;75.39
58092;BME280;43896;48.178;11.578;2022-10-31T06:07:00;96272.63;;;11.09;75.23
58092;BME280;43896;48.178;11.578;2022-10-31T06:09:26;96246.06;;;11.02;75.67
58092;BME280;43896;48.178;11.578;2022-10-31T06:11:51;96265.09;;;11.14;75.51
58092;BME280;43896;48.178;11.578;2022-10-31T06:14:16;96291.41;;;11.32;75.43
58092;BME280;43896;48.178;11.578;2022-10-31T06:16:42;96317.53;;;11.43;75.84
58092;BME280;43896;48.178;11.578;2022-10-31T06:19:07;96233.91;;;10.83;75.67
58092;BME280;43896;48.178;11.578;2022-10-31T06:21:32;96277.75;;;11.11;75.71
58092;BME280;43896;48.178;11.578;2022-10-31T06:23:58;96254.94;;;11.01;75.92
58092;BME280;43896;48.178;11.578;2022-10-31T06:26:23;96266.00;;;11.05;76.17
58092;BME280;43896;48.178;11.578;2022-10-31T06:28:48;96290.88;;;11.29;75.50
58092;BME280;43896;48.178;11.578;2022-10-31T06:31:14;96325.69;;;11.58;75.21
58092;BME280;43896;48.178;11.578;2022-10-31T06:33:41;96290.97;;;11.37;75.43
58092;BME280;43896;48.178;11.578;2022-10-31T06:36:07;96265.00;;;11.24;75.33
58092;BME280;43896;48.178;11.578;2022-10-31T06:38:32;96311.41;;;11.61;75.34
58092;BME280;43896;48.178;11.578;2022-10-31T06:40:57;96271.16;;;11.33;75.52
58092;BME280;43896;48.178;11.578;2022-10-31T06:43:23;96327.81;;;11.73;75.09
58092;BME280;43896;48.178;11.578;2022-10-31T06:45:48;96324.31;;;11.72;74.84
58092;BME280;43896;48.178;11.578;2022-10-31T06:48:13;96265.31;;;11.39;75.39
58092;BME280;43896;48.178;11.578;2022-10-31T06:50:39;96277.53;;;11.48;75.72
58092;BME280;43896;48.178;11.578;2022-10-31T06:53:04;96303.88;;;11.66;75.37
58092;BME280;43896;48.178;11.578;2022-10-31T06:55:30;96275.34;;;11.61;75.75
58092;BME280;43896;48.178;11.578;2022-10-31T06:57:59;96329.53;;;12.00;75.41
58092;BME280;43896;48.178;11.578;2022-10-31T07:00:26;96331.66;;;12.05;75.31
58092;BME280;43896;48.178;11.578;2022-10-31T07:03:07;96336.19;;;12.12;74.90
58092;BME280;43896;48.178;11.578;2022-10-31T07:05:34;96334.78;;;12.26;73.86
58092;BME280;43896;48.178;11.578;2022-10-31T07:08:01;96333.31;;;12.32;74.59
58092;BME280;43896;48.178;11.578;2022-10-31T07:10:28;96315.28;;;12.19;74.54
58092;BME280;43896;48.178;11.578;2022-10-31T07:12:55;96331.78;;;12.21;75.64
58092;BME280;43896;48.178;11.578;2022-10-31T07:15:22;96318.81;;;12.28;75.80
58092;BME280;43896;48.178;11.578;2022-10-31T07:17:47;96332.38;;;12.41;75.82
58092;BME280;43896;48.178;11.578;2022-10-31T07:20:12;96279.88;;;12.22;76.22
58092;BME280;43896;48.178;11.578;2022-10-31T07:22:38;96336.41;;;12.62;76.67
58092;BME280;43896;48.178;11.578;2022-10-31T07:25:03;96323.72;;;12.57;77.15
58092;BME280;43896;48.178;11.578;2022-10-31T07:27:35;96337.81;;;12.82;77.30
58092;BME280;43896;48.178;11.578;2022-10-31T07:30:00;96341.34;;;12.99;76.82
58092;BME280;43896;48.178;11.578;2022-10-31T07:32:26;96301.06;;;12.89;76.67
58092;BME280;43896;48.178;11.578;2022-10-31T07:34:51;96293.47;;;12.94;76.26
58092;BME280;43896;48.178;11.578;2022-10-31T07:37:16;96352.97;;;13.31;76.70
58092;BME280;43896;48.178;11.578;2022-10-31T07:39:42;96314.81;;;13.25;76.20
58092;BME280;43896;48.178;11.578;2022-10-31T07:42:07;96281.31;;;13.18;75.96
58092;BME280;43896;48.178;11.578;2022-10-31T07:44:32;96310.09;;;13.45;75.85
58092;BME280;43896;48.178;11.578;2022-10-31T07:46:57;96317.03;;;13.63;75.54
58092;BME280;43896;48.178;11.578;2022-10-31T07:49:23;96312.41;;;13.73;75.38
58092;BME280;43896;48.178;11.578;2022-10-31T07:51:50;96321.31;;;13.97;75.42
58092;BME280;43896;48.178;11.578;2022-10-31T07:54:15;96315.31;;;14.11;74.38
58092;BME280;43896;48.178;11.578;2022-10-31T07:56:41;96307.88;;;14.23;73.95
58092;BME280;43896;48.178;11.578;2022-10-31T07:59:06;96328.13;;;14.55;73.06
58092;BME280;43896;48.178;11.578;2022-10-31T08:01:33;96325.78;;;14.69;72.95
58092;BME280;43896;48.178;11.578;2022-10-31T08:03:58;96290.72;;;14.67;72.20
58092;BME280;43896;48.178;11.578;2022-10-31T08:06:23;96292.25;;;14.92;71.44
58092;BME280;43896;48.178;11.578;2022-10-31T08:08:48;96306.41;;;15.31;70.41
58092;BME280;43896;48.178;11.578;2022-10-31T08:11:14;96280.84;;;15.38;69.26
58092;BME280;43896;48.178;11.578;2022-10-31T08:13:39;96297.22;;;15.65;68.22
58092;BME280;43896;48.178;11.578;2022-10-31T08:16:05;96277.19;;;15.62;68.00
58092;BME280;43896;48.178;11.578;2022-10-31T08:18:32;96298.50;;;16.07;66.85
58092;BME280;43896;48.178;11.578;2022-10-31T08:20:57;96309.97;;;16.22;66.34
58092;BME280;43896;48.178;11.578;2022-10-31T08:23:23;96249.38;;;15.81;65.61
58092;BME280;43896;48.178;11.578;2022-10-31T08:25:48;96260.47;;;16.15;65.50
58092;BME280;43896;48.178;11.578;2022-10-31T08:28:14;96244.44;;;15.93;66.00
58092;BME280;43896;48.178;11.578;2022-10-31T08:30:40;96251.41;;;16.09;66.71
58092;BME280;43896;48.178;11.578;2022-10-31T08:33:12;96234.03;;;16.06;67.03
58092;BME280;43896;48.178;11.578;2022-10-31T08:35:38;96300.38;;;16.66;66.39
58092;BME280;43896;48.178;11.578;2022-10-31T08:38:04;96269.50;;;16.65;65.98
58092;BME280;43896;48.178;11.578;2022-10-31T08:40:31;96253.84;;;16.55;66.59
58092;BME280;43896;48.178;11.578;2022-10-31T08:43:01;96290.47;;;16.90;66.00
58092;BME280;43896;48.178;11.578;2022-10-31T08:45:28;96201.25;;;16.44;65.62
58092;BME280;43896;48.178;11.578;2022-10-31T08:47:58;96241.41;;;17.07;64.35
58092;BME280;43896;48.178;11.578;2022-10-31T08:50:24;96243.09;;;16.93;63.77
58092;BME280;43896;48.178;11.578;2022-10-31T08:52:49;96247.69;;;16.84;64.51
58092;BME280;43896;48.178;11.578;2022-10-31T08:55:15;96220.91;;;17.01;63.69
58092;BME280;43896;48.178;11.578;2022-10-31T08:57:41;96260.00;;;17.29;63.22
58092;BME280;43896;48.178;11.578;2022-10-31T09:00:06;96229.25;;;17.41;61.73
58092;BME280;43896;48.178;11.578;2022-10-31T09:02:32;96233.38;;;17.72;61.09
58092;BME280;43896;48.178;11.578;2022-10-31T09:04:57;96233.03;;;17.53;60.76
58092;BME280;43896;48.178;11.578;2022-10-31T09:07:23;96252.06;;;17.78;60.92
58092;BME280;43896;48.178;11.578;2022-10-31T09:09:48;96212.47;;;17.69;60.91
58092;BME280;43896;48.178;11.578;2022-10-31T09:12:13;96217.69;;;17.05;62.35
58092;BME280;43896;48.178;11.578;2022-10-31T09:14:39;96178.81;;;17.26;61.12
58092;BME280;43896;48.178;11.578;2022-10-31T09:17:04;96207.84;;;17.28;61.72
58092;BME280;43896;48.178;11.578;2022-10-31T09:19:29;96201.91;;;17.25;61.33
58092;BME280;43896;48.178;11.578;2022-10-31T09:21:55;96196.78;;;17.24;61.87
58092;BME280;43896;48.178;11.578;2022-10-31T09:24:20;96248.16;;;18.03;59.93
58092;BME280;43896;48.178;11.578;2022-10-31T09:26:46;96192.69;;;18.06;59.11
58092;BME280;43896;48.178;11.578;2022-10-31T09:29:11;96190.03;;;18.06;58.47
58092;BME280;43896;48.178;11.578;2022-10-31T09:31:36;96193.34;;;18.63;57.56
58092;BME280;43896;48.178;11.578;2022-10-31T09:34:02;96225.13;;;19.33;55.90
58092;BME280;43896;48.178;11.578;2022-10-31T09:36:27;96175.28;;;19.54;54.45
58092;BME280;43896;48.178;11.578;2022-10-31T09:38:52;96197.59;;;20.06;52.69
58092;BME280;43896;48.178;11.578;2022-10-31T09:47:40;96229.34;;;20.41;52.41
58092;BME280;43896;48.178;11.578;2022-10-31T09:50:25;96228.19;;;20.17;52.30
58092;BME280;43896;48.178;11.578;2022-10-31T09:53:02;96205.22;;;19.69;53.03
58092;BME280;43896;48.178;11.578;2022-10-31T09:55:37;96204.81;;;19.59;53.44
58092;BME280;43896;48.178;11.578;2022-10-31T09:58:04;96187.16;;;19.24;52.64
58092;BME280;43896;48.178;11.578;2022-10-31T10:00:30;96204.38;;;19.08;54.51
58092;BME280;43896;48.178;11.578;2022-10-31T10:06:02;96221.78;;;19.04;54.33
58092;BME280;43896;48.178;11.578;2022-10-31T10:08:31;96192.06;;;19.07;52.54
58092;BME280;43896;48.178;11.578;2022-10-31T10:11:17;96198.84;;;19.17;53.55
58092;BME280;43896;48.178;11.578;2022-10-31T10:13:57;96207.66;;;19.10;53.57
58092;BME280;43896;48.178;11.578;2022-10-31T10:22:12;96209.91;;;19.00;54.69
58092;BME280;43896;48.178;11.578;2022-10-31T10:24:59;96200.66;;;19.03;54.72
58092;BME280;43896;48.178;11.578;2022-10-31T10:30:46;96215.00;;;18.95;54.64
58092;BME280;43896;48.178;11.578;2022-10-31T10:33:18;96197.28;;;18.67;55.53
58092;BME280;43896;48.178;11.578;2022-10-31T10:35:49;96203.34;;;18.41;55.83
58092;BME280;43896;48.178;11.578;2022-10-31T10:38:59;96171.59;;;18.53;54.70
58092;BME280;43896;48.178;11.578;2022-10-31T10:41:26;96152.16;;;18.59;55.02
58092;BME280;43896;48.178;11.578;2022-10-31T10:43:52;96185.13;;;18.58;55.41
58092;BME280;43896;48.178;11.578;2022-10-31T10:49:25;96175.47;;;18.44;54.93
58092;BME280;43896;48.178;11.578;2022-10-31T10:52:31;96174.47;;;18.58;54.70
58092;BME280;43896;48.178;11.578;2022-10-31T10:58:00;96143.25;;;18.32;56.87
58092;BME280;43896;48.178;11.578;2022-10-31T11:00:31;96181.06;;;18.62;56.63
58092;BME280;43896;48.178;11.578;2022-10-31T11:02:57;96133.66;;;18.44;55.92
58092;BME280;43896;48.178;11.578;2022-10-31T11:05:33;96171.81;;;18.58;56.50
58092;BME280;43896;48.178;11.578;2022-10-31T11:07:59;96155.16;;;18.43;57.33
58092;BME280;43896;48.178;11.578;2022-10-31T11:10:24;96164.03;;;18.50;56.83
58092;BME280;43896;48.178;11.578;2022-10-31T11:13:20;96167.03;;;18.88;56.28
58092;BME280;43896;48.178;11.578;2022-10-31T11:15:59;96154.34;;;18.35;56.95
58092;BME280;43896;48.178;11.578;2022-10-31T11:18:27;96153.16;;;18.51;56.24
58092;BME280;43896;48.178;11.578;2022-10-31T11:20:56;96151.16;;;18.67;56.23
58092;BME280;43896;48.178;11.578;2022-10-31T11:23:24;96076.97;;;17.89;57.54
58092;BME280;43896;48.178;11.578;2022-10-31T11:28:22;96066.47;;;18.35;57.08
58092;BME280;43896;48.178;11.578;2022-10-31T11:30:57;96151.78;;;18.69;57.18
58092;BME280;43896;48.178;11.578;2022-10-31T11:33:28;96152.09;;;18.39;58.28
58092;BME280;43896;48.178;11.578;2022-10-31T11:35:54;96094.03;;;18.08;56.80
58092;BME280;43896;48.178;11.578;2022-10-31T11:38:24;96092.78;;;18.04;55.83
58092;BME280;43896;48.178;11.578;2022-10-31T11:41:17;96093.81;;;18.09;54.32
58092;BME280;43896;48.178;11.578;2022-10-31T11:43:56;96115.41;;;18.28;54.16
58092;BME280;43896;48.178;11.578;2022-10-31T11:48:54;96075.66;;;18.26;53.51
58092;BME280;43896;48.178;11.578;2022-10-31T11:51:26;96081.44;;;18.36;53.69
58092;BME280;43896;48.178;11.578;2022-10-31T11:53:55;96018.28;;;18.04;53.28
58092;BME280;43896;48.178;11.578;2022-10-31T11:56:23;96112.22;;;18.66;51.73
58092;BME280;43896;48.178;11.578;2022-10-31T11:59:04;96113.22;;;18.65;51.34
58092;BME280;43896;48.178;11.578;2022-10-31T12:01:31;96045.81;;;18.58;50.21
58092;BME280;43896;48.178;11.578;2022-10-31T12:04:10;96077.00;;;18.84;50.50
58092;BME280;43896;48.178;11.578;2022-10-31T12:06:38;96053.38;;;18.47;50.83
58092;BME280;43896;48.178;11.578;2022-10-31T12:17:14;96101.72;;;18.44;52.80
58092;BME280;43896;48.178;11.578;2022-10-31T12:19:55;96044.47;;;18.07;52.99
58092;BME280;43896;48.178;11.578;2022-10-31T12:22:45;96091.50;;;18.54;52.85
58092;BME280;43896;48.178;11.578;2022-10-31T12:28:36;96097.59;;;18.28;54.23
58092;BME280;43896;48.178;11.578;2022-10-31T12:34:00;96012.13;;;18.10;53.49
58092;BME280;43896;48.178;11.578;2022-10-31T12:37:04;96039.44;;;18.45;53.35
58092;BME280;43896;48.178;11.578;2022-10-31T12:39:40;96074.09;;;18.59;53.03
58092;BME280;43896;48.178;11.578;2022-10-31T12:48:11;96053.91;;;18.09;54.57
58092;BME280;43896;48.178;11.578;2022-10-31T12:50:52;96017.84;;;18.07;54.20
58092;BME280;43896;48.178;11.578;2022-10-31T12:53:35;96011.69;;;17.99;54.69
58092;BME280;43896;48.178;11.578;2022-10-31T12:59:13;96018.72;;;18.27;54.95
58092;BME280;43896;48.178;11.578;2022-10-31T13:01:51;96011.38;;;18.29;55.55
58092;BME280;43896;48.178;11.578;2022-10-31T13:07:05;95989.22;;;18.22;55.24
58092;BME280;43896;48.178;11.578;2022-10-31T13:09:38;96013.25;;;18.55;55.12
58092;BME280;43896;48.178;11.578;2022-10-31T13:12:12;95959.75;;;18.30;55.33
58092;BME280;43896;48.178;11.578;2022-10-31T13:14:43;96003.41;;;18.56;55.40
58092;BME280;43896;48.178;11.578;2022-10-31T13:20:13;96030.44;;;18.66;55.31
58092;BME280;43896;48.178;11.578;2022-10-31T13:22:42;96022.06;;;18.69;54.64
58092;BME280;43896;48.178;11.578;2022-10-31T13:27:48;96032.97;;;18.95;54.95
58092;BME280;43896;48.178;11.578;2022-10-31T13:30:17;95968.13;;;18.27;55.80
58092;BME280;43896;48.178;11.578;2022-10-31T13:38:30;96007.50;;;18.72;55.31
58092;BME280;43896;48.178;11.578;2022-10-31T13:41:28;95958.75;;;18.31;55.89
58092;BME280;43896;48.178;11.578;2022-10-31T13:44:22;96014.25;;;18.68;56.71
58092;BME280;43896;48.178;11.578;2022-10-31T13:46:49;95949.91;;;18.44;56.96
58092;BME280;43896;48.178;11.578;2022-10-31T13:51:50;96000.97;;;18.88;59.16
58092;BME280;43896;48.178;11.578;2022-10-31T13:54:21;96011.22;;;18.91;59.68
58092;BME280;43896;48.178;11.578;2022-10-31T13:56:49;95985.16;;;18.66;59.40
58092;BME280;43896;48.178;11.578;2022-10-31T13:59:25;95925.97;;;18.17;60.31
58092;BME280;43896;48.178;11.578;2022-10-31T14:01:57;96003.00;;;18.72;60.36
58092;BME280;43896;48.178;11.578;2022-10-31T14:04:33;95996.84;;;18.72;60.13
58092;BME280;43896;48.178;11.578;2022-10-31T14:07:12;96007.94;;;18.76;60.73
58092;BME280;43896;48.178;11.578;2022-10-31T14:12:42;95935.19;;;18.35;61.39
58092;BME280;43896;48.178;11.578;2022-10-31T14:17:52;95953.00;;;18.68;61.38
58092;BME280;43896;48.178;11.578;2022-10-31T14:20:24;95955.47;;;18.69;61.54
58092;BME280;43896;48.178;11.578;2022-10-31T14:22:50;95900.75;;;18.13;62.63
58092;BME280;43896;48.178;11.578;2022-10-31T14:25:35;95931.06;;;18.46;62.79
58092;BME280;43896;48.178;11.578;2022-10-31T14:28:17;95942.13;;;18.56;63.02
58092;BME280;43896;48.178;11.578;2022-10-31T14:30:52;95973.91;;;18.58;64.45
58092;BME280;43896;48.178;11.578;2022-10-31T14:33:19;95984.34;;;18.66;64.40
58092;BME280;43896;48.178;11.578;2022-10-31T14:36:04;95894.00;;;18.04;65.05